Aérodrome :
LOGIN :

S'inscrire | Disclaimer

   EN    FR    IT 

 










Légende :    VFR   VFR Marginal   IFR   IFR Intensif   IFR Très Intensif
Visi : 
Plafond : 
>= 8 km
>= 3000ft
5 à 8 km
1000 à 3000 ft
1500m à 5 km
500 à 1000 ft
800 à 1500m
200 à 500 ft
< 800m
< 200 ft
Symboles :   Orages  Brouillard  Fortes neiges  Fortes précipitations  Vent > 20 kt
SIGMETs :   Divers  Orages  Givrage  Turbulence  Onde Orograph.  Cendres Volcan.







- Altitude de l'aérodrome : 297 ft
- Code IATA : UIP
- Voir les cartes d'approche


LFRQ - Quimper Pluguffan

DERNIER METAR :
  • 161700Z AUTO 19010KT 9999 BKN015 BKN021 OVC028 18/15 Q1019 TEMPO 22015G25KT 4000 -RA OVC008

METARs EXPIRÉS :
  • 161630Z AUTO 20010KT 170V240 9999 BKN017 BKN030 BKN036 19/15 Q1019 TEMPO 22015G25KT 4000 -RA OVC008
  • 161600Z AUTO 20010KT 170V230 9999 OVC016 19/15 Q1019 BECMG BKN012
  • 161530Z AUTO 18010KT 140V210 9999 BKN017 OVC024 19/15 Q1019 BECMG BKN012
  • 161500Z AUTO 18009KT 150V220 9999 BKN021 BKN027 OVC068 20/14 Q1019 BECMG BKN012
  • 161430Z AUTO 21010KT 170V230 9999 BKN022 BKN031 OVC076 20/14 Q1020 BECMG BKN012

TAF TAF LFRQ
Valide du 16 à 15h jusqu'au 17 à 00h UTC


161400Z 1615/1624 21010KT 9999 BKN025
BECMG 1616/1618 BKN012
TEMPO 1618/1624 22015G25KT 4000 -RA OVC008
Pas de NOTAMs connus pour ce terrain.



MET'MAP, la Météo Aéronautique d'un coup d'oeil ! - Copyright ORBIFLY Décembre 2007 - Disclaimer

ORBIFLY MET'MAP TEAM :

Programmation & Développement : Alexandra Zaïnal
Conception & Développement : Baudouin d'Aumeries
Co-Programmation & Développement : Marc-Olivier Méhu
Soutien technique & logistique : Manuel Goepfert

Contact : metmap@orbifly.com




SOURCES & CREDITS :

   NOAA